sensor_id;sensor_type;location;lat;lon;timestamp;P1;durP1;ratioP1;P2;durP2;ratioP2
66587;SDS011;53446;50.076;8.198;2023-06-14T00:00:52;17.10;;;9.48;;
66587;SDS011;53446;50.076;8.198;2023-06-14T00:02:52;18.70;;;9.10;;
66587;SDS011;53446;50.076;8.198;2023-06-14T00:04:55;17.02;;;9.55;;
66587;SDS011;53446;50.076;8.198;2023-06-14T00:06:56;19.30;;;9.43;;
66587;SDS011;53446;50.076;8.198;2023-06-14T00:08:57;18.97;;;10.17;;
66587;SDS011;53446;50.076;8.198;2023-06-14T00:10:57;17.03;;;9.43;;
66587;SDS011;53446;50.076;8.198;2023-06-14T00:12:57;20.67;;;10.33;;
66587;SDS011;53446;50.076;8.198;2023-06-14T00:14:59;17.60;;;9.75;;
66587;SDS011;53446;50.076;8.198;2023-06-14T00:17:01;18.02;;;9.82;;
66587;SDS011;53446;50.076;8.198;2023-06-14T00:19:02;19.13;;;9.63;;
66587;SDS011;53446;50.076;8.198;2023-06-14T00:21:05;20.17;;;11.38;;
66587;SDS011;53446;50.076;8.198;2023-06-14T00:23:06;21.73;;;10.60;;
66587;SDS011;53446;50.076;8.198;2023-06-14T00:25:06;17.55;;;10.15;;
66587;SDS011;53446;50.076;8.198;2023-06-14T00:27:06;17.42;;;9.57;;
66587;SDS011;53446;50.076;8.198;2023-06-14T00:29:07;18.10;;;9.87;;
66587;SDS011;53446;50.076;8.198;2023-06-14T00:31:07;18.63;;;10.03;;
66587;SDS011;53446;50.076;8.198;2023-06-14T00:33:07;19.97;;;9.97;;
66587;SDS011;53446;50.076;8.198;2023-06-14T00:35:08;17.80;;;9.70;;
66587;SDS011;53446;50.076;8.198;2023-06-14T00:37:08;20.88;;;10.43;;
66587;SDS011;53446;50.076;8.198;2023-06-14T00:39:09;18.73;;;9.60;;
66587;SDS011;53446;50.076;8.198;2023-06-14T00:41:09;18.80;;;9.87;;
66587;SDS011;53446;50.076;8.198;2023-06-14T00:43:10;18.42;;;9.60;;
66587;SDS011;53446;50.076;8.198;2023-06-14T00:45:10;19.57;;;10.00;;
66587;SDS011;53446;50.076;8.198;2023-06-14T00:47:10;19.50;;;9.80;;
66587;SDS011;53446;50.076;8.198;2023-06-14T00:49:11;17.80;;;9.47;;
66587;SDS011;53446;50.076;8.198;2023-06-14T00:51:12;17.17;;;9.48;;
66587;SDS011;53446;50.076;8.198;2023-06-14T00:53:13;18.33;;;9.97;;
66587;SDS011;53446;50.076;8.198;2023-06-14T00:55:15;20.25;;;10.15;;
66587;SDS011;53446;50.076;8.198;2023-06-14T00:57:15;18.50;;;10.47;;
66587;SDS011;53446;50.076;8.198;2023-06-14T00:59:16;19.57;;;9.83;;
66587;SDS011;53446;50.076;8.198;2023-06-14T01:01:16;20.53;;;10.27;;
66587;SDS011;53446;50.076;8.198;2023-06-14T01:03:16;17.40;;;9.68;;
66587;SDS011;53446;50.076;8.198;2023-06-14T01:05:22;19.27;;;10.82;;
66587;SDS011;53446;50.076;8.198;2023-06-14T01:07:25;17.63;;;9.80;;
66587;SDS011;53446;50.076;8.198;2023-06-14T01:09:37;18.35;;;10.18;;
66587;SDS011;53446;50.076;8.198;2023-06-14T01:11:54;19.73;;;10.27;;
66587;SDS011;53446;50.076;8.198;2023-06-14T01:14:01;20.52;;;10.00;;
66587;SDS011;53446;50.076;8.198;2023-06-14T01:16:03;18.42;;;9.18;;
66587;SDS011;53446;50.076;8.198;2023-06-14T01:18:05;18.67;;;9.82;;
66587;SDS011;53446;50.076;8.198;2023-06-14T01:20:05;18.63;;;9.63;;
66587;SDS011;53446;50.076;8.198;2023-06-14T01:22:10;19.45;;;10.35;;
66587;SDS011;53446;50.076;8.198;2023-06-14T01:24:11;18.47;;;9.93;;
66587;SDS011;53446;50.076;8.198;2023-06-14T01:26:11;18.75;;;10.00;;
66587;SDS011;53446;50.076;8.198;2023-06-14T01:28:12;21.73;;;10.82;;
66587;SDS011;53446;50.076;8.198;2023-06-14T01:30:14;17.90;;;10.10;;
66587;SDS011;53446;50.076;8.198;2023-06-14T01:32:15;17.60;;;10.25;;
66587;SDS011;53446;50.076;8.198;2023-06-14T01:34:16;19.13;;;10.13;;
66587;SDS011;53446;50.076;8.198;2023-06-14T01:36:17;19.27;;;10.40;;
66587;SDS011;53446;50.076;8.198;2023-06-14T01:38:22;16.88;;;9.85;;
66587;SDS011;53446;50.076;8.198;2023-06-14T01:40:24;18.30;;;9.65;;
66587;SDS011;53446;50.076;8.198;2023-06-14T01:42:25;18.73;;;9.77;;
66587;SDS011;53446;50.076;8.198;2023-06-14T01:44:25;19.30;;;10.65;;
66587;SDS011;53446;50.076;8.198;2023-06-14T01:46:27;18.42;;;10.30;;
66587;SDS011;53446;50.076;8.198;2023-06-14T01:48:27;18.63;;;9.30;;
66587;SDS011;53446;50.076;8.198;2023-06-14T01:50:28;18.47;;;9.87;;
66587;SDS011;53446;50.076;8.198;2023-06-14T01:52:30;16.92;;;9.00;;
66587;SDS011;53446;50.076;8.198;2023-06-14T01:54:30;18.90;;;9.17;;
66587;SDS011;53446;50.076;8.198;2023-06-14T01:56:30;16.53;;;9.07;;
66587;SDS011;53446;50.076;8.198;2023-06-14T01:58:32;16.50;;;9.40;;
66587;SDS011;53446;50.076;8.198;2023-06-14T02:00:33;20.67;;;10.20;;
66587;SDS011;53446;50.076;8.198;2023-06-14T02:02:33;18.77;;;11.02;;
66587;SDS011;53446;50.076;8.198;2023-06-14T02:04:33;17.80;;;9.70;;
66587;SDS011;53446;50.076;8.198;2023-06-14T02:06:34;19.40;;;9.90;;
66587;SDS011;53446;50.076;8.198;2023-06-14T02:08:34;18.17;;;10.23;;
66587;SDS011;53446;50.076;8.198;2023-06-14T02:10:35;18.48;;;9.18;;
66587;SDS011;53446;50.076;8.198;2023-06-14T02:12:35;20.47;;;9.63;;
66587;SDS011;53446;50.076;8.198;2023-06-14T02:14:35;20.53;;;10.30;;
66587;SDS011;53446;50.076;8.198;2023-06-14T02:16:36;20.80;;;10.97;;
66587;SDS011;53446;50.076;8.198;2023-06-14T02:18:36;18.33;;;10.17;;
66587;SDS011;53446;50.076;8.198;2023-06-14T02:20:36;20.33;;;10.03;;
66587;SDS011;53446;50.076;8.198;2023-06-14T02:22:37;18.43;;;10.80;;
66587;SDS011;53446;50.076;8.198;2023-06-14T02:24:37;18.27;;;10.32;;
66587;SDS011;53446;50.076;8.198;2023-06-14T02:26:37;19.07;;;10.57;;
66587;SDS011;53446;50.076;8.198;2023-06-14T02:28:37;16.83;;;9.27;;
66587;SDS011;53446;50.076;8.198;2023-06-14T02:30:38;17.57;;;9.43;;
66587;SDS011;53446;50.076;8.198;2023-06-14T02:32:39;19.13;;;9.80;;
66587;SDS011;53446;50.076;8.198;2023-06-14T02:34:40;17.08;;;9.07;;
66587;SDS011;53446;50.076;8.198;2023-06-14T02:36:41;19.73;;;9.53;;
66587;SDS011;53446;50.076;8.198;2023-06-14T02:38:41;19.85;;;10.13;;
66587;SDS011;53446;50.076;8.198;2023-06-14T02:40:42;18.30;;;9.85;;
66587;SDS011;53446;50.076;8.198;2023-06-14T02:42:42;18.73;;;10.13;;
66587;SDS011;53446;50.076;8.198;2023-06-14T02:44:42;17.40;;;9.57;;
66587;SDS011;53446;50.076;8.198;2023-06-14T02:46:43;16.50;;;9.00;;
66587;SDS011;53446;50.076;8.198;2023-06-14T02:48:43;20.83;;;10.25;;
66587;SDS011;53446;50.076;8.198;2023-06-14T02:50:44;16.70;;;9.53;;
66587;SDS011;53446;50.076;8.198;2023-06-14T02:52:44;21.00;;;10.73;;
66587;SDS011;53446;50.076;8.198;2023-06-14T02:54:45;20.08;;;9.77;;
66587;SDS011;53446;50.076;8.198;2023-06-14T02:56:47;19.23;;;9.10;;
66587;SDS011;53446;50.076;8.198;2023-06-14T02:58:47;18.67;;;9.87;;
66587;SDS011;53446;50.076;8.198;2023-06-14T03:00:48;18.70;;;8.98;;
66587;SDS011;53446;50.076;8.198;2023-06-14T03:02:48;21.25;;;11.50;;
66587;SDS011;53446;50.076;8.198;2023-06-14T03:04:50;18.30;;;9.77;;
66587;SDS011;53446;50.076;8.198;2023-06-14T03:06:50;18.83;;;10.23;;
66587;SDS011;53446;50.076;8.198;2023-06-14T03:08:51;18.10;;;9.53;;
66587;SDS011;53446;50.076;8.198;2023-06-14T03:10:54;19.02;;;9.50;;
66587;SDS011;53446;50.076;8.198;2023-06-14T03:12:56;20.88;;;11.48;;
66587;SDS011;53446;50.076;8.198;2023-06-14T03:14:56;17.93;;;9.73;;
66587;SDS011;53446;50.076;8.198;2023-06-14T03:16:56;19.20;;;9.27;;
66587;SDS011;53446;50.076;8.198;2023-06-14T03:18:57;22.27;;;9.97;;
66587;SDS011;53446;50.076;8.198;2023-06-14T03:20:57;16.87;;;9.13;;
66587;SDS011;53446;50.076;8.198;2023-06-14T03:23:01;16.63;;;9.20;;
66587;SDS011;53446;50.076;8.198;2023-06-14T03:25:02;16.02;;;9.02;;
66587;SDS011;53446;50.076;8.198;2023-06-14T03:27:04;18.75;;;9.68;;
66587;SDS011;53446;50.076;8.198;2023-06-14T03:29:04;19.20;;;9.23;;
66587;SDS011;53446;50.076;8.198;2023-06-14T03:31:05;18.30;;;9.03;;
66587;SDS011;53446;50.076;8.198;2023-06-14T03:33:05;18.37;;;9.97;;
66587;SDS011;53446;50.076;8.198;2023-06-14T03:35:06;16.05;;;9.27;;
66587;SDS011;53446;50.076;8.198;2023-06-14T03:37:06;18.40;;;9.77;;
66587;SDS011;53446;50.076;8.198;2023-06-14T03:39:07;19.83;;;9.57;;
66587;SDS011;53446;50.076;8.198;2023-06-14T03:41:07;17.52;;;9.90;;
66587;SDS011;53446;50.076;8.198;2023-06-14T03:43:07;18.35;;;9.85;;
66587;SDS011;53446;50.076;8.198;2023-06-14T03:45:08;17.90;;;9.83;;
66587;SDS011;53446;50.076;8.198;2023-06-14T03:47:08;17.50;;;9.40;;
66587;SDS011;53446;50.076;8.198;2023-06-14T03:49:08;18.97;;;10.10;;
66587;SDS011;53446;50.076;8.198;2023-06-14T03:51:09;18.67;;;10.17;;
66587;SDS011;53446;50.076;8.198;2023-06-14T03:53:10;17.15;;;9.55;;
66587;SDS011;53446;50.076;8.198;2023-06-14T03:55:10;19.93;;;9.70;;
66587;SDS011;53446;50.076;8.198;2023-06-14T03:57:13;18.50;;;9.70;;
66587;SDS011;53446;50.076;8.198;2023-06-14T03:59:13;16.40;;;9.43;;
66587;SDS011;53446;50.076;8.198;2023-06-14T04:01:14;17.53;;;9.73;;
66587;SDS011;53446;50.076;8.198;2023-06-14T04:03:14;18.60;;;10.30;;
66587;SDS011;53446;50.076;8.198;2023-06-14T04:05:15;17.27;;;9.15;;
66587;SDS011;53446;50.076;8.198;2023-06-14T04:07:16;17.85;;;9.55;;
66587;SDS011;53446;50.076;8.198;2023-06-14T04:09:19;15.93;;;9.65;;
66587;SDS011;53446;50.076;8.198;2023-06-14T04:11:19;18.43;;;9.43;;
66587;SDS011;53446;50.076;8.198;2023-06-14T04:13:20;16.53;;;9.43;;
66587;SDS011;53446;50.076;8.198;2023-06-14T04:15:20;18.95;;;9.73;;
66587;SDS011;53446;50.076;8.198;2023-06-14T04:17:20;18.45;;;10.27;;
66587;SDS011;53446;50.076;8.198;2023-06-14T04:19:21;17.27;;;9.53;;
66587;SDS011;53446;50.076;8.198;2023-06-14T04:21:21;18.00;;;9.77;;
66587;SDS011;53446;50.076;8.198;2023-06-14T04:23:23;19.23;;;10.32;;
66587;SDS011;53446;50.076;8.198;2023-06-14T04:25:23;18.83;;;10.63;;
66587;SDS011;53446;50.076;8.198;2023-06-14T04:27:26;17.02;;;9.43;;
66587;SDS011;53446;50.076;8.198;2023-06-14T04:29:26;17.95;;;10.38;;
66587;SDS011;53446;50.076;8.198;2023-06-14T04:31:29;17.60;;;9.48;;
66587;SDS011;53446;50.076;8.198;2023-06-14T04:33:35;16.63;;;8.65;;
66587;SDS011;53446;50.076;8.198;2023-06-14T04:35:43;19.13;;;9.57;;
66587;SDS011;53446;50.076;8.198;2023-06-14T04:37:47;18.55;;;10.07;;
66587;SDS011;53446;50.076;8.198;2023-06-14T04:39:48;20.63;;;11.23;;
66587;SDS011;53446;50.076;8.198;2023-06-14T04:41:48;17.80;;;9.33;;
66587;SDS011;53446;50.076;8.198;2023-06-14T04:43:52;20.55;;;9.63;;
66587;SDS011;53446;50.076;8.198;2023-06-14T04:45:53;20.92;;;10.00;;
66587;SDS011;53446;50.076;8.198;2023-06-14T04:47:56;19.25;;;9.57;;
66587;SDS011;53446;50.076;8.198;2023-06-14T04:49:57;20.95;;;10.73;;
66587;SDS011;53446;50.076;8.198;2023-06-14T04:51:57;20.77;;;10.93;;
66587;SDS011;53446;50.076;8.198;2023-06-14T04:53:59;17.52;;;9.68;;
66587;SDS011;53446;50.076;8.198;2023-06-14T04:56:01;18.30;;;9.68;;
66587;SDS011;53446;50.076;8.198;2023-06-14T04:58:01;18.13;;;10.33;;
66587;SDS011;53446;50.076;8.198;2023-06-14T05:00:02;23.20;;;11.70;;
66587;SDS011;53446;50.076;8.198;2023-06-14T05:02:05;20.38;;;10.07;;
66587;SDS011;53446;50.076;8.198;2023-06-14T05:04:06;21.25;;;10.05;;
66587;SDS011;53446;50.076;8.198;2023-06-14T05:06:07;19.97;;;10.17;;
66587;SDS011;53446;50.076;8.198;2023-06-14T05:08:07;17.80;;;10.07;;
66587;SDS011;53446;50.076;8.198;2023-06-14T05:10:09;20.15;;;10.82;;
66587;SDS011;53446;50.076;8.198;2023-06-14T05:12:10;17.63;;;9.80;;
66587;SDS011;53446;50.076;8.198;2023-06-14T05:14:10;17.93;;;10.73;;
66587;SDS011;53446;50.076;8.198;2023-06-14T05:16:11;19.40;;;10.82;;
66587;SDS011;53446;50.076;8.198;2023-06-14T05:18:12;18.90;;;10.00;;
66587;SDS011;53446;50.076;8.198;2023-06-14T05:20:13;20.40;;;10.73;;
66587;SDS011;53446;50.076;8.198;2023-06-14T05:22:13;19.23;;;10.00;;
66587;SDS011;53446;50.076;8.198;2023-06-14T05:24:14;19.65;;;10.45;;
66587;SDS011;53446;50.076;8.198;2023-06-14T05:26:14;19.08;;;11.95;;
66587;SDS011;53446;50.076;8.198;2023-06-14T05:28:15;22.38;;;11.23;;
66587;SDS011;53446;50.076;8.198;2023-06-14T05:30:16;19.97;;;10.57;;
66587;SDS011;53446;50.076;8.198;2023-06-14T05:32:17;21.63;;;10.98;;
66587;SDS011;53446;50.076;8.198;2023-06-14T05:34:18;19.40;;;10.90;;
66587;SDS011;53446;50.076;8.198;2023-06-14T05:36:18;18.47;;;10.53;;
66587;SDS011;53446;50.076;8.198;2023-06-14T05:38:19;19.45;;;10.60;;
66587;SDS011;53446;50.076;8.198;2023-06-14T05:40:19;20.93;;;11.30;;
66587;SDS011;53446;50.076;8.198;2023-06-14T05:42:20;19.67;;;10.83;;
66587;SDS011;53446;50.076;8.198;2023-06-14T05:44:20;20.50;;;10.40;;
66587;SDS011;53446;50.076;8.198;2023-06-14T05:46:20;19.35;;;10.77;;
66587;SDS011;53446;50.076;8.198;2023-06-14T05:48:24;18.80;;;10.53;;
66587;SDS011;53446;50.076;8.198;2023-06-14T05:50:24;18.13;;;10.55;;
66587;SDS011;53446;50.076;8.198;2023-06-14T05:52:24;19.33;;;11.00;;
66587;SDS011;53446;50.076;8.198;2023-06-14T05:54:25;24.93;;;11.40;;
66587;SDS011;53446;50.076;8.198;2023-06-14T05:56:25;21.80;;;11.33;;
66587;SDS011;53446;50.076;8.198;2023-06-14T05:58:26;20.70;;;10.27;;
66587;SDS011;53446;50.076;8.198;2023-06-14T06:00:26;21.35;;;11.77;;
66587;SDS011;53446;50.076;8.198;2023-06-14T06:02:27;24.23;;;12.93;;
66587;SDS011;53446;50.076;8.198;2023-06-14T06:04:27;22.13;;;12.53;;
66587;SDS011;53446;50.076;8.198;2023-06-14T06:06:28;20.67;;;12.27;;
66587;SDS011;53446;50.076;8.198;2023-06-14T06:08:28;23.17;;;12.48;;
66587;SDS011;53446;50.076;8.198;2023-06-14T06:10:29;19.73;;;10.60;;
66587;SDS011;53446;50.076;8.198;2023-06-14T06:12:30;22.58;;;11.48;;
66587;SDS011;53446;50.076;8.198;2023-06-14T06:14:30;20.73;;;12.07;;
66587;SDS011;53446;50.076;8.198;2023-06-14T06:16:30;20.77;;;11.60;;
66587;SDS011;53446;50.076;8.198;2023-06-14T06:18:31;20.10;;;10.43;;
66587;SDS011;53446;50.076;8.198;2023-06-14T06:20:31;20.77;;;10.67;;
66587;SDS011;53446;50.076;8.198;2023-06-14T06:22:31;19.30;;;10.63;;
66587;SDS011;53446;50.076;8.198;2023-06-14T06:24:32;22.27;;;10.20;;
66587;SDS011;53446;50.076;8.198;2023-06-14T06:26:32;19.77;;;10.98;;
66587;SDS011;53446;50.076;8.198;2023-06-14T06:28:32;19.70;;;10.13;;
66587;SDS011;53446;50.076;8.198;2023-06-14T06:30:33;21.33;;;9.63;;
66587;SDS011;53446;50.076;8.198;2023-06-14T06:32:33;18.27;;;8.93;;
66587;SDS011;53446;50.076;8.198;2023-06-14T06:34:33;16.63;;;9.60;;
66587;SDS011;53446;50.076;8.198;2023-06-14T06:36:33;16.93;;;9.10;;
66587;SDS011;53446;50.076;8.198;2023-06-14T06:38:35;16.63;;;8.38;;
66587;SDS011;53446;50.076;8.198;2023-06-14T06:40:35;18.73;;;8.20;;
66587;SDS011;53446;50.076;8.198;2023-06-14T06:42:36;17.27;;;9.20;;
66587;SDS011;53446;50.076;8.198;2023-06-14T06:44:36;17.43;;;9.07;;
66587;SDS011;53446;50.076;8.198;2023-06-14T06:46:36;16.53;;;9.00;;
66587;SDS011;53446;50.076;8.198;2023-06-14T06:48:41;17.17;;;8.38;;
66587;SDS011;53446;50.076;8.198;2023-06-14T06:50:41;17.63;;;9.13;;
66587;SDS011;53446;50.076;8.198;2023-06-14T06:52:41;18.87;;;10.23;;
66587;SDS011;53446;50.076;8.198;2023-06-14T06:54:41;17.17;;;8.40;;
66587;SDS011;53446;50.076;8.198;2023-06-14T06:56:42;17.93;;;9.63;;
66587;SDS011;53446;50.076;8.198;2023-06-14T06:58:42;19.30;;;9.43;;
66587;SDS011;53446;50.076;8.198;2023-06-14T07:00:42;15.45;;;8.93;;
66587;SDS011;53446;50.076;8.198;2023-06-14T07:02:43;19.23;;;10.30;;
66587;SDS011;53446;50.076;8.198;2023-06-14T07:04:43;20.43;;;8.97;;
66587;SDS011;53446;50.076;8.198;2023-06-14T07:06:43;16.87;;;8.70;;
66587;SDS011;53446;50.076;8.198;2023-06-14T07:08:44;15.60;;;8.23;;
66587;SDS011;53446;50.076;8.198;2023-06-14T07:10:44;16.83;;;8.47;;
66587;SDS011;53446;50.076;8.198;2023-06-14T07:12:45;19.17;;;9.00;;
66587;SDS011;53446;50.076;8.198;2023-06-14T07:14:45;15.80;;;7.70;;
66587;SDS011;53446;50.076;8.198;2023-06-14T07:16:46;17.90;;;7.95;;
66587;SDS011;53446;50.076;8.198;2023-06-14T07:18:46;17.75;;;9.02;;
66587;SDS011;53446;50.076;8.198;2023-06-14T07:20:46;18.17;;;7.90;;
66587;SDS011;53446;50.076;8.198;2023-06-14T07:22:47;18.27;;;8.90;;
66587;SDS011;53446;50.076;8.198;2023-06-14T07:24:47;16.20;;;7.93;;
66587;SDS011;53446;50.076;8.198;2023-06-14T07:26:48;14.55;;;8.00;;
66587;SDS011;53446;50.076;8.198;2023-06-14T07:28:48;19.47;;;7.67;;
66587;SDS011;53446;50.076;8.198;2023-06-14T07:30:49;15.83;;;7.10;;
66587;SDS011;53446;50.076;8.198;2023-06-14T07:32:49;21.52;;;9.80;;
66587;SDS011;53446;50.076;8.198;2023-06-14T07:34:50;16.30;;;8.13;;
66587;SDS011;53446;50.076;8.198;2023-06-14T07:36:50;15.73;;;7.03;;
66587;SDS011;53446;50.076;8.198;2023-06-14T07:38:51;15.20;;;7.60;;
66587;SDS011;53446;50.076;8.198;2023-06-14T07:40:51;14.18;;;7.38;;
66587;SDS011;53446;50.076;8.198;2023-06-14T07:42:51;16.27;;;7.57;;
66587;SDS011;53446;50.076;8.198;2023-06-14T07:44:54;15.75;;;7.32;;
66587;SDS011;53446;50.076;8.198;2023-06-14T07:46:54;15.37;;;7.43;;
66587;SDS011;53446;50.076;8.198;2023-06-14T07:48:58;19.13;;;7.68;;
66587;SDS011;53446;50.076;8.198;2023-06-14T07:50:58;15.93;;;7.50;;
66587;SDS011;53446;50.076;8.198;2023-06-14T07:52:58;14.03;;;7.23;;
66587;SDS011;53446;50.076;8.198;2023-06-14T07:54:59;18.20;;;7.97;;
66587;SDS011;53446;50.076;8.198;2023-06-14T07:57:00;14.23;;;7.28;;
66587;SDS011;53446;50.076;8.198;2023-06-14T07:59:00;16.10;;;7.57;;
66587;SDS011;53446;50.076;8.198;2023-06-14T08:01:00;13.57;;;7.30;;
66587;SDS011;53446;50.076;8.198;2023-06-14T08:03:06;14.20;;;7.13;;
66587;SDS011;53446;50.076;8.198;2023-06-14T08:05:06;14.50;;;6.93;;
66587;SDS011;53446;50.076;8.198;2023-06-14T08:07:06;15.20;;;7.80;;
66587;SDS011;53446;50.076;8.198;2023-06-14T08:09:07;23.40;;;7.55;;
66587;SDS011;53446;50.076;8.198;2023-06-14T08:11:07;18.15;;;7.85;;
66587;SDS011;53446;50.076;8.198;2023-06-14T08:13:07;15.13;;;7.33;;
66587;SDS011;53446;50.076;8.198;2023-06-14T08:15:09;13.48;;;6.78;;
66587;SDS011;53446;50.076;8.198;2023-06-14T08:17:10;14.38;;;7.22;;
66587;SDS011;53446;50.076;8.198;2023-06-14T08:19:10;14.90;;;7.00;;
66587;SDS011;53446;50.076;8.198;2023-06-14T08:21:11;12.43;;;6.43;;
66587;SDS011;53446;50.076;8.198;2023-06-14T08:23:11;12.53;;;6.63;;
66587;SDS011;53446;50.076;8.198;2023-06-14T08:25:11;14.70;;;6.93;;
66587;SDS011;53446;50.076;8.198;2023-06-14T08:27:12;13.00;;;6.15;;
66587;SDS011;53446;50.076;8.198;2023-06-14T08:29:13;12.85;;;6.18;;
66587;SDS011;53446;50.076;8.198;2023-06-14T08:31:13;12.63;;;6.17;;
66587;SDS011;53446;50.076;8.198;2023-06-14T08:33:13;13.50;;;6.10;;
66587;SDS011;53446;50.076;8.198;2023-06-14T08:35:14;14.53;;;6.53;;
66587;SDS011;53446;50.076;8.198;2023-06-14T08:37:15;13.77;;;6.45;;
66587;SDS011;53446;50.076;8.198;2023-06-14T08:39:15;13.60;;;6.67;;
66587;SDS011;53446;50.076;8.198;2023-06-14T08:41:20;12.33;;;6.50;;
66587;SDS011;53446;50.076;8.198;2023-06-14T08:43:23;13.43;;;6.35;;
66587;SDS011;53446;50.076;8.198;2023-06-14T08:45:23;14.00;;;6.80;;
66587;SDS011;53446;50.076;8.198;2023-06-14T08:47:25;15.85;;;6.95;;
66587;SDS011;53446;50.076;8.198;2023-06-14T08:49:26;12.27;;;6.22;;
66587;SDS011;53446;50.076;8.198;2023-06-14T08:51:27;13.20;;;6.87;;
66587;SDS011;53446;50.076;8.198;2023-06-14T08:53:33;13.52;;;6.38;;
66587;SDS011;53446;50.076;8.198;2023-06-14T08:55:36;12.15;;;6.35;;
66587;SDS011;53446;50.076;8.198;2023-06-14T08:57:38;13.55;;;6.93;;
66587;SDS011;53446;50.076;8.198;2023-06-14T08:59:39;12.93;;;6.63;;
66587;SDS011;53446;50.076;8.198;2023-06-14T09:01:53;13.57;;;6.28;;
66587;SDS011;53446;50.076;8.198;2023-06-14T09:03:54;12.02;;;6.63;;
66587;SDS011;53446;50.076;8.198;2023-06-14T09:05:57;12.50;;;6.27;;
66587;SDS011;53446;50.076;8.198;2023-06-14T09:08:01;10.55;;;5.72;;
66587;SDS011;53446;50.076;8.198;2023-06-14T09:10:20;11.63;;;5.70;;
66587;SDS011;53446;50.076;8.198;2023-06-14T09:12:21;13.57;;;6.20;;
66587;SDS011;53446;50.076;8.198;2023-06-14T09:14:23;12.35;;;5.63;;
66587;SDS011;53446;50.076;8.198;2023-06-14T09:16:25;13.50;;;5.57;;
66587;SDS011;53446;50.076;8.198;2023-06-14T09:18:37;11.77;;;6.05;;
66587;SDS011;53446;50.076;8.198;2023-06-14T09:20:38;12.10;;;6.03;;
66587;SDS011;53446;50.076;8.198;2023-06-14T09:22:40;14.47;;;6.83;;
66587;SDS011;53446;50.076;8.198;2023-06-14T09:24:41;12.50;;;6.43;;
66587;SDS011;53446;50.076;8.198;2023-06-14T09:26:41;13.73;;;6.03;;
66587;SDS011;53446;50.076;8.198;2023-06-14T09:28:42;12.47;;;6.53;;
66587;SDS011;53446;50.076;8.198;2023-06-14T09:30:46;12.27;;;6.47;;
66587;SDS011;53446;50.076;8.198;2023-06-14T09:32:46;11.77;;;6.83;;
66587;SDS011;53446;50.076;8.198;2023-06-14T09:34:47;12.03;;;6.00;;
66587;SDS011;53446;50.076;8.198;2023-06-14T09:36:47;12.88;;;5.95;;
66587;SDS011;53446;50.076;8.198;2023-06-14T09:38:55;15.23;;;6.80;;
66587;SDS011;53446;50.076;8.198;2023-06-14T09:40:58;12.13;;;5.90;;
66587;SDS011;53446;50.076;8.198;2023-06-14T09:42:58;11.55;;;5.43;;
66587;SDS011;53446;50.076;8.198;2023-06-14T09:44:59;12.20;;;5.90;;
66587;SDS011;53446;50.076;8.198;2023-06-14T09:47:00;13.80;;;5.93;;
66587;SDS011;53446;50.076;8.198;2023-06-14T09:49:01;11.32;;;5.43;;
66587;SDS011;53446;50.076;8.198;2023-06-14T09:51:02;11.85;;;5.75;;
66587;SDS011;53446;50.076;8.198;2023-06-14T09:53:06;11.90;;;6.35;;
66587;SDS011;53446;50.076;8.198;2023-06-14T09:55:11;12.05;;;6.20;;
66587;SDS011;53446;50.076;8.198;2023-06-14T09:57:13;14.15;;;6.45;;
66587;SDS011;53446;50.076;8.198;2023-06-14T09:59:14;13.18;;;5.95;;
66587;SDS011;53446;50.076;8.198;2023-06-14T10:01:20;11.75;;;5.88;;
66587;SDS011;53446;50.076;8.198;2023-06-14T10:03:29;11.47;;;5.83;;
66587;SDS011;53446;50.076;8.198;2023-06-14T10:05:30;14.30;;;6.30;;
66587;SDS011;53446;50.076;8.198;2023-06-14T10:09:42;10.85;;;5.70;;
66587;SDS011;53446;50.076;8.198;2023-06-14T10:11:48;12.68;;;6.22;;
66587;SDS011;53446;50.076;8.198;2023-06-14T10:13:49;12.70;;;6.13;;
66587;SDS011;53446;50.076;8.198;2023-06-14T10:18:09;12.00;;;6.10;;
66587;SDS011;53446;50.076;8.198;2023-06-14T10:20:26;11.70;;;6.47;;
66587;SDS011;53446;50.076;8.198;2023-06-14T10:22:29;11.25;;;6.18;;
66587;SDS011;53446;50.076;8.198;2023-06-14T10:24:33;11.10;;;5.93;;
66587;SDS011;53446;50.076;8.198;2023-06-14T10:26:39;11.00;;;6.05;;
66587;SDS011;53446;50.076;8.198;2023-06-14T10:28:57;12.95;;;6.32;;
66587;SDS011;53446;50.076;8.198;2023-06-14T10:31:09;14.35;;;7.75;;
66587;SDS011;53446;50.076;8.198;2023-06-14T10:33:10;12.30;;;6.20;;
66587;SDS011;53446;50.076;8.198;2023-06-14T10:35:16;12.20;;;6.03;;
66587;SDS011;53446;50.076;8.198;2023-06-14T10:37:16;10.63;;;6.13;;
66587;SDS011;53446;50.076;8.198;2023-06-14T10:39:17;12.97;;;6.30;;
66587;SDS011;53446;50.076;8.198;2023-06-14T10:41:17;11.60;;;6.10;;
66587;SDS011;53446;50.076;8.198;2023-06-14T10:43:22;16.03;;;6.57;;
66587;SDS011;53446;50.076;8.198;2023-06-14T10:45:23;12.00;;;6.43;;
66587;SDS011;53446;50.076;8.198;2023-06-14T10:47:24;11.87;;;5.97;;
66587;SDS011;53446;50.076;8.198;2023-06-14T10:49:41;11.20;;;6.07;;
66587;SDS011;53446;50.076;8.198;2023-06-14T10:51:43;12.38;;;5.93;;
66587;SDS011;53446;50.076;8.198;2023-06-14T10:53:49;13.13;;;6.43;;
66587;SDS011;53446;50.076;8.198;2023-06-14T10:55:50;12.13;;;6.93;;
66587;SDS011;53446;50.076;8.198;2023-06-14T10:57:51;14.85;;;6.63;;
66587;SDS011;53446;50.076;8.198;2023-06-14T10:59:55;10.80;;;6.15;;
66587;SDS011;53446;50.076;8.198;2023-06-14T11:04:49;11.77;;;6.03;;
66587;SDS011;53446;50.076;8.198;2023-06-14T11:06:51;11.35;;;5.97;;
66587;SDS011;53446;50.076;8.198;2023-06-14T11:11:36;12.48;;;6.35;;
66587;SDS011;53446;50.076;8.198;2023-06-14T11:13:37;10.32;;;5.70;;
66587;SDS011;53446;50.076;8.198;2023-06-14T11:15:39;12.77;;;6.60;;
66587;SDS011;53446;50.076;8.198;2023-06-14T11:17:50;10.77;;;5.90;;
66587;SDS011;53446;50.076;8.198;2023-06-14T11:20:11;11.07;;;5.82;;
66587;SDS011;53446;50.076;8.198;2023-06-14T11:22:15;13.60;;;6.57;;
66587;SDS011;53446;50.076;8.198;2023-06-14T11:24:16;10.30;;;5.88;;
66587;SDS011;53446;50.076;8.198;2023-06-14T11:26:26;11.30;;;5.95;;
66587;SDS011;53446;50.076;8.198;2023-06-14T11:28:37;11.35;;;6.00;;
66587;SDS011;53446;50.076;8.198;2023-06-14T11:30:40;11.53;;;6.43;;
66587;SDS011;53446;50.076;8.198;2023-06-14T11:32:40;14.80;;;6.30;;
66587;SDS011;53446;50.076;8.198;2023-06-14T11:34:40;10.70;;;5.60;;
66587;SDS011;53446;50.076;8.198;2023-06-14T11:36:41;10.43;;;6.17;;
66587;SDS011;53446;50.076;8.198;2023-06-14T11:38:41;11.97;;;5.90;;
66587;SDS011;53446;50.076;8.198;2023-06-14T11:40:41;12.03;;;6.00;;
66587;SDS011;53446;50.076;8.198;2023-06-14T11:42:42;12.37;;;6.20;;
66587;SDS011;53446;50.076;8.198;2023-06-14T11:44:43;13.43;;;6.20;;
66587;SDS011;53446;50.076;8.198;2023-06-14T11:46:45;11.67;;;6.10;;
66587;SDS011;53446;50.076;8.198;2023-06-14T11:48:46;11.55;;;6.30;;
66587;SDS011;53446;50.076;8.198;2023-06-14T11:50:49;11.82;;;5.72;;
66587;SDS011;53446;50.076;8.198;2023-06-14T11:52:53;10.60;;;6.10;;
66587;SDS011;53446;50.076;8.198;2023-06-14T11:54:55;12.45;;;5.63;;
66587;SDS011;53446;50.076;8.198;2023-06-14T11:56:56;10.07;;;5.15;;
66587;SDS011;53446;50.076;8.198;2023-06-14T11:58:56;10.77;;;5.90;;
66587;SDS011;53446;50.076;8.198;2023-06-14T12:00:57;13.63;;;5.93;;
66587;SDS011;53446;50.076;8.198;2023-06-14T12:02:58;12.48;;;7.03;;
66587;SDS011;53446;50.076;8.198;2023-06-14T12:05:03;10.70;;;5.90;;
66587;SDS011;53446;50.076;8.198;2023-06-14T12:07:08;9.85;;;5.63;;
66587;SDS011;53446;50.076;8.198;2023-06-14T12:09:12;9.00;;;5.20;;